Beverly, Ohio
Current Conditions -  °F | °C
As of 5:53 AM on Monday 20 Oct 2014 (Local Time) from KPKB Reporting Station
Clear Clear  
Wind Chill: 41°   Ceiling: Unl
Heat Index: 41°   Visibility: 10mi
Dew Point: 37°   Wind: 3mph
Humidity: 86%   Direction: 170°S
Pressure: 30.07"   Gusts: NA
Location:  39.55°N, 81.64°W
Report Text: KPKB 200953Z AUTO 17003KT 10SM CLR 05/03 A3007 RMK AO2 SLP185 T00500028
Loading
Personal Weather Stations






























Interactive Weather Map
Tropical Storm Tracking
New forecast layout! Learn more

10-Day Weather Forecast

Advertisements
Track Severe Weather on mobile